Time;durP1;ratioP1;P1;durP2;ratioP2;P2;SDS_P1;SDS_P2;PMS_P1;PMS_P2;Temp;Humidity;BMP_temperature;BMP_pressure;BME280_temperature;BME280_humidity;BME280_pressure;Samples;Min_cycle;Max_cycle;Signal;HPM_P1;HPM_P2
2021/09/22 00:02:16;;;;;;;14.05;10.90;;;9.60;99.90;;;;;;4974078;28;20226;-74
2021/09/22 00:04:43;;;;;;;20.40;11.80;;;9.60;99.90;;;;;;4974481;28;20241;-73
2021/09/22 00:07:11;;;;;;;13.13;11.73;;;9.60;99.90;;;;;;4974477;28;20996;-73
2021/09/22 00:09:38;;;;;;;15.38;11.43;;;9.60;99.90;;;;;;4973892;28;20237;-73
2021/09/22 00:12:05;;;;;;;16.17;12.50;;;9.50;99.90;;;;;;5030596;23;20247;-78
2021/09/22 00:14:33;;;;;;;13.23;9.88;;;9.50;99.90;;;;;;5025437;28;20240;-78
2021/09/22 00:17:00;;;;;;;15.30;11.07;;;9.50;99.90;;;;;;5014786;28;20208;-78
2021/09/22 00:19:27;;;;;;;16.55;11.93;;;9.40;99.90;;;;;;5013806;28;20637;-77
2021/09/22 00:21:54;;;;;;;14.43;11.50;;;9.40;99.90;;;;;;5013536;28;20248;-77
2021/09/22 00:24:22;;;;;;;16.55;12.20;;;9.40;99.90;;;;;;5015469;28;20235;-77
2021/09/22 00:26:49;;;;;;;11.90;9.80;;;9.40;99.90;;;;;;5016890;28;20239;-78
2021/09/22 00:29:16;;;;;;;13.60;10.57;;;9.40;99.90;;;;;;5015796;28;20240;-77
2021/09/22 00:31:44;;;;;;;12.60;11.10;;;9.30;99.90;;;;;;5015685;28;20264;-77
2021/09/22 00:34:11;;;;;;;15.05;11.55;;;9.30;99.90;;;;;;5016433;28;20205;-77
2021/09/22 00:36:38;;;;;;;13.38;11.40;;;9.30;99.90;;;;;;5016502;28;20212;-76
2021/09/22 00:39:06;;;;;;;12.27;10.27;;;9.30;99.90;;;;;;5016400;28;20250;-76
2021/09/22 00:41:34;;;;;;;13.13;10.80;;;9.30;99.90;;;;;;5016016;28;20320;-76
2021/09/22 00:44:01;;;;;;;17.45;12.40;;;9.20;99.90;;;;;;5015546;28;20232;-76
2021/09/22 00:46:28;;;;;;;13.85;11.25;;;9.20;99.90;;;;;;5016088;28;20247;-77
2021/09/22 00:48:55;;;;;;;14.07;12.25;;;9.20;99.90;;;;;;5015780;28;20270;-79
2021/09/22 00:51:22;;;;;;;14.43;11.93;;;9.20;99.90;;;;;;5015480;28;20315;-76
2021/09/22 00:53:49;;;;;;;15.63;11.65;;;9.10;99.90;;;;;;5015584;28;20243;-76
2021/09/22 00:56:17;;;;;;;13.88;11.60;;;9.10;99.90;;;;;;5015768;28;20207;-77
2021/09/22 00:58:45;;;;;;;14.27;11.05;;;9.10;99.90;;;;;;5015837;28;20603;-77
2021/09/22 01:01:12;;;;;;;13.65;11.23;;;9.10;99.90;;;;;;5015524;28;20224;-76
2021/09/22 01:03:40;;;;;;;15.60;11.82;;;9.10;99.90;;;;;;5015825;28;20238;-76
2021/09/22 01:06:07;;;;;;;15.90;12.70;;;9.10;99.90;;;;;;5020929;28;20219;-76
2021/09/22 01:08:34;;;;;;;12.65;10.30;;;9.10;99.90;;;;;;5015600;28;20216;-77
2021/09/22 01:11:01;;;;;;;14.57;11.98;;;9.10;99.90;;;;;;5014773;28;20240;-77
2021/09/22 01:13:28;;;;;;;14.13;11.57;;;9.10;99.90;;;;;;5015851;28;20616;-77
2021/09/22 01:15:57;;;;;;;20.00;11.57;;;9.10;99.90;;;;;;5015426;28;20250;-77
2021/09/22 01:18:24;;;;;;;12.00;10.38;;;9.00;99.90;;;;;;5015495;28;20243;-77
2021/09/22 01:20:55;;;;;;;17.17;12.15;;;9.10;99.90;;;;;;5014716;28;20232;-77
2021/09/22 01:23:25;;;;;;;14.05;11.43;;;9.00;99.90;;;;;;5015432;28;20290;-77
2021/09/22 01:25:53;;;;;;;15.15;11.82;;;9.00;99.90;;;;;;5014549;28;20644;-77
2021/09/22 01:28:23;;;;;;;16.13;11.90;;;9.00;99.90;;;;;;5015270;28;20294;-77
2021/09/22 01:30:50;;;;;;;16.95;12.68;;;9.00;99.90;;;;;;5014941;28;20311;-77
2021/09/22 01:33:22;;;;;;;15.23;12.35;;;8.90;99.90;;;;;;5015109;28;20204;-77
2021/09/22 01:35:49;;;;;;;16.17;12.40;;;8.80;99.90;;;;;;5013674;28;20278;-77
2021/09/22 01:38:18;;;;;;;13.48;11.15;;;8.80;99.90;;;;;;5015282;28;20239;-77
2021/09/22 01:40:58;;;;;;;14.63;11.82;;;8.70;99.90;;;;;;5014845;28;20243;-77
2021/09/22 01:43:27;;;;;;;13.73;11.25;;;8.70;99.90;;;;;;5015152;28;20204;-77
2021/09/22 01:45:54;;;;;;;14.32;11.25;;;8.70;99.90;;;;;;5014689;28;20220;-77
2021/09/22 01:48:21;;;;;;;16.55;10.77;;;8.80;99.90;;;;;;5014803;28;20262;-77
2021/09/22 01:50:49;;;;;;;16.02;11.82;;;8.70;99.90;;;;;;5014106;28;20263;-76
2021/09/22 01:53:16;;;;;;;15.43;12.07;;;8.70;99.90;;;;;;5014588;28;20262;-76
2021/09/22 01:55:44;;;;;;;15.80;12.00;;;8.80;99.90;;;;;;5015110;28;20235;-76
2021/09/22 01:58:13;;;;;;;15.10;11.63;;;8.80;99.90;;;;;;5015079;28;20208;-77
2021/09/22 02:00:40;;;;;;;15.75;12.25;;;8.70;99.90;;;;;;5018093;28;20251;-78
2021/09/22 02:03:07;;;;;;;14.23;11.75;;;8.70;99.90;;;;;;5017909;28;20235;-77
2021/09/22 02:05:34;;;;;;;14.65;12.68;;;8.70;99.90;;;;;;5015261;28;20239;-78
2021/09/22 02:08:01;;;;;;;16.15;12.05;;;8.70;99.90;;;;;;5014633;28;20631;-78
2021/09/22 02:10:28;;;;;;;13.98;11.48;;;8.70;99.90;;;;;;5014128;28;20294;-78
2021/09/22 02:12:55;;;;;;;15.43;11.93;;;8.70;99.90;;;;;;5015164;28;20610;-78
2021/09/22 02:15:24;;;;;;;15.82;11.90;;;8.60;99.90;;;;;;5014666;28;20271;-78
2021/09/22 02:17:51;;;;;;;15.23;11.93;;;8.60;99.90;;;;;;5016572;28;20298;-78
2021/09/22 02:20:18;;;;;;;16.95;13.10;;;8.60;99.90;;;;;;5015016;28;20234;-78
2021/09/22 02:22:45;;;;;;;17.92;12.82;;;8.60;99.90;;;;;;5014981;28;20281;-78
2021/09/22 02:25:13;;;;;;;14.57;11.27;;;8.50;99.90;;;;;;5014451;28;20249;-78
2021/09/22 02:27:40;;;;;;;14.07;11.60;;;8.60;99.90;;;;;;5015071;28;20243;-78
2021/09/22 02:30:10;;;;;;;15.10;11.77;;;8.60;99.90;;;;;;5014874;28;20228;-77
2021/09/22 02:32:39;;;;;;;16.98;10.75;;;8.50;99.90;;;;;;5015421;28;20251;-77
2021/09/22 02:35:07;;;;;;;15.55;11.95;;;8.50;99.90;;;;;;5014819;28;20303;-77
2021/09/22 02:37:34;;;;;;;17.58;11.63;;;8.60;99.90;;;;;;5014307;28;20276;-77
2021/09/22 02:40:01;;;;;;;14.00;11.45;;;8.60;99.90;;;;;;5013808;28;20235;-76
2021/09/22 02:42:28;;;;;;;16.80;12.32;;;8.50;99.90;;;;;;5014203;28;20243;-76
2021/09/22 02:44:55;;;;;;;15.05;11.90;;;8.50;99.90;;;;;;5014949;28;20208;-77
2021/09/22 02:47:23;;;;;;;16.25;11.77;;;8.50;99.90;;;;;;5013843;28;20628;-77
2021/09/22 02:49:51;;;;;;;20.08;11.73;;;8.60;99.90;;;;;;5014218;28;20291;-76
2021/09/22 02:52:19;;;;;;;13.70;10.95;;;8.60;99.90;;;;;;5013964;28;20228;-77
2021/09/22 02:54:46;;;;;;;15.00;11.30;;;8.60;99.90;;;;;;5016307;28;20753;-78
2021/09/22 02:57:12;;;;;;;16.52;11.35;;;8.50;99.90;;;;;;5022621;28;20214;-77
2021/09/22 02:59:39;;;;;;;14.60;12.00;;;8.40;99.90;;;;;;5014989;28;20234;-77
2021/09/22 03:02:06;;;;;;;14.10;11.02;;;8.40;99.90;;;;;;5014224;28;20314;-77
2021/09/22 03:04:33;;;;;;;16.48;11.27;;;8.40;99.90;;;;;;5014539;28;20307;-77
2021/09/22 03:07:02;;;;;;;15.15;11.48;;;8.40;99.90;;;;;;5015783;28;20235;-77
2021/09/22 03:09:29;;;;;;;14.70;11.88;;;8.40;99.90;;;;;;5016263;28;20242;-76
2021/09/22 03:11:55;;;;;;;14.60;11.60;;;8.30;99.90;;;;;;5016617;28;20262;-76
2021/09/22 03:14:23;;;;;;;15.77;12.30;;;8.30;99.90;;;;;;5017157;28;20266;-77
2021/09/22 03:16:49;;;;;;;14.25;11.10;;;8.30;99.90;;;;;;5019169;28;20247;-77
2021/09/22 03:19:17;;;;;;;15.55;11.82;;;8.20;99.90;;;;;;5018345;28;20204;-77
2021/09/22 03:21:44;;;;;;;15.50;12.57;;;8.10;99.90;;;;;;5017021;28;20282;-77
2021/09/22 03:24:12;;;;;;;14.15;11.68;;;8.10;99.90;;;;;;5015695;28;20235;-78
2021/09/22 03:26:39;;;;;;;16.30;11.25;;;8.10;99.90;;;;;;5015288;28;20254;-77
2021/09/22 03:29:06;;;;;;;16.65;12.30;;;8.10;99.90;;;;;;5017009;28;20242;-78
2021/09/22 03:31:33;;;;;;;17.42;12.70;;;8.00;99.90;;;;;;5021841;28;20242;-78
2021/09/22 03:34:00;;;;;;;17.33;13.07;;;8.00;99.90;;;;;;5023870;28;20215;-78
2021/09/22 03:36:27;;;;;;;16.50;12.60;;;8.00;99.90;;;;;;5025595;28;20207;-77
2021/09/22 03:38:54;;;;;;;17.27;12.45;;;8.00;99.90;;;;;;5020521;28;20676;-77
2021/09/22 03:41:22;;;;;;;18.98;13.48;;;7.90;99.90;;;;;;5018118;28;20257;-78
2021/09/22 03:43:49;;;;;;;16.77;12.18;;;7.90;99.90;;;;;;5016483;28;20211;-77
2021/09/22 03:46:16;;;;;;;20.00;12.27;;;8.00;99.90;;;;;;5018583;28;20559;-78
2021/09/22 03:48:43;;;;;;;15.50;11.98;;;7.90;99.90;;;;;;5026758;28;20222;-76
2021/09/22 03:51:10;;;;;;;14.82;12.30;;;7.80;99.90;;;;;;5024435;28;20652;-77
2021/09/22 03:53:37;;;;;;;17.58;13.05;;;7.80;99.90;;;;;;5028374;28;20255;-77
2021/09/22 03:56:05;;;;;;;15.70;11.85;;;7.80;99.90;;;;;;5015888;28;20204;-78
2021/09/22 03:58:33;;;;;;;14.00;11.45;;;7.80;99.90;;;;;;5014045;28;20211;-76
2021/09/22 04:01:00;;;;;;;16.05;12.18;;;7.80;99.90;;;;;;5016567;28;20258;-75
2021/09/22 04:03:27;;;;;;;17.23;12.85;;;7.80;99.90;;;;;;5016158;28;20252;-75
2021/09/22 04:05:55;;;;;;;17.95;12.85;;;7.80;99.90;;;;;;5016697;28;20266;-76
2021/09/22 04:08:22;;;;;;;16.70;12.32;;;7.80;99.90;;;;;;5016432;28;20270;-76
2021/09/22 04:10:49;;;;;;;16.58;12.40;;;7.80;99.90;;;;;;5015970;28;20691;-76
2021/09/22 04:13:16;;;;;;;16.45;12.35;;;7.70;99.90;;;;;;5016365;28;20783;-75
2021/09/22 04:15:44;;;;;;;17.73;13.10;;;7.70;99.90;;;;;;5021834;28;20239;-76
2021/09/22 04:18:11;;;;;;;19.10;13.73;;;7.70;99.90;;;;;;5022365;28;20223;-76
2021/09/22 04:20:38;;;;;;;17.48;12.95;;;7.70;99.90;;;;;;5022749;28;20211;-79
2021/09/22 04:23:05;;;;;;;17.05;11.80;;;7.70;99.90;;;;;;5023183;28;20231;-78
2021/09/22 04:25:32;;;;;;;15.15;12.50;;;7.70;99.90;;;;;;5020193;28;20251;-79
2021/09/22 04:27:59;;;;;;;17.67;13.75;;;7.70;99.90;;;;;;5015939;28;20314;-74
2021/09/22 04:30:26;;;;;;;22.60;14.50;;;7.80;99.90;;;;;;5015825;28;20291;-75
2021/09/22 04:32:54;;;;;;;15.43;11.23;;;7.80;99.90;;;;;;5016187;28;20224;-79
2021/09/22 04:35:21;;;;;;;17.58;12.70;;;7.80;99.90;;;;;;5017065;28;20211;-75
2021/09/22 04:37:48;;;;;;;17.35;12.10;;;7.80;99.90;;;;;;5017512;28;20239;-77
2021/09/22 04:40:16;;;;;;;21.30;14.15;;;7.80;99.90;;;;;;5015743;28;20207;-77
2021/09/22 04:42:43;;;;;;;20.35;12.80;;;7.80;99.90;;;;;;5015492;28;20315;-75
2021/09/22 04:45:10;;;;;;;16.50;13.02;;;7.80;99.90;;;;;;5015767;28;20276;-76
2021/09/22 04:47:38;;;;;;;17.75;11.60;;;7.70;99.90;;;;;;5016861;28;20212;-77
2021/09/22 04:50:09;;;;;;;16.50;12.60;;;7.80;99.90;;;;;;5025615;28;20261;-76
2021/09/22 04:52:36;;;;;;;15.88;12.30;;;7.80;99.90;;;;;;5015750;28;20236;-76
2021/09/22 04:55:03;;;;;;;15.45;12.10;;;7.80;99.90;;;;;;5015854;28;20254;-76
2021/09/22 04:57:30;;;;;;;16.15;12.38;;;7.80;99.90;;;;;;5024901;28;20207;-80
2021/09/22 04:59:57;;;;;;;19.75;12.02;;;7.90;99.90;;;;;;5030031;28;20235;-79
2021/09/22 05:02:24;;;;;;;18.05;13.35;;;7.90;99.90;;;;;;5024084;28;20255;-79
2021/09/22 05:04:51;;;;;;;15.85;12.13;;;8.00;99.90;;;;;;5019279;28;20218;-78
2021/09/22 05:07:20;;;;;;;17.13;13.20;;;8.00;99.90;;;;;;5030681;28;20188;-78
2021/09/22 05:09:47;;;;;;;17.50;12.05;;;8.00;99.90;;;;;;5027197;28;20231;-78
2021/09/22 05:15:11;;;;;;;17.15;12.30;;;8.10;99.90;;;;;;5018712;28;20602;-75
2021/09/22 05:17:38;;;;;;;17.55;12.18;;;8.10;99.90;;;;;;5014828;28;20243;-75
2021/09/22 05:20:07;;;;;;;20.02;13.48;;;8.10;99.90;;;;;;5014617;28;20234;-76
2021/09/22 05:22:35;;;;;;;15.45;11.60;;;8.10;99.90;;;;;;5014659;28;20278;-76
2021/09/22 05:25:02;;;;;;;15.90;11.90;;;8.10;99.80;;;;;;5014621;28;20208;-75
2021/09/22 05:27:29;;;;;;;18.80;13.32;;;8.10;99.80;;;;;;5016705;28;20208;-78
2021/09/22 05:29:56;;;;;;;19.00;12.93;;;8.10;99.80;;;;;;5018214;28;20203;-78
2021/09/22 05:32:23;;;;;;;18.45;12.15;;;8.20;99.70;;;;;;5018506;28;20231;-78
2021/09/22 05:34:51;;;;;;;15.77;11.50;;;8.20;99.30;;;;;;5019675;28;20196;-79
2021/09/22 05:37:18;;;;;;;13.70;11.50;;;8.20;99.10;;;;;;5018805;28;20208;-78
2021/09/22 05:39:47;;;;;;;18.20;13.05;;;8.30;99.10;;;;;;5019138;28;20215;-77
2021/09/22 05:42:14;;;;;;;16.38;12.98;;;8.30;98.80;;;;;;5016306;28;20228;-77
2021/09/22 05:44:40;;;;;;;16.17;12.25;;;8.30;98.60;;;;;;5024494;28;20210;-77
2021/09/22 05:47:07;;;;;;;15.88;12.02;;;8.30;98.20;;;;;;5018888;28;20238;-77
2021/09/22 05:49:34;;;;;;;17.67;11.95;;;8.40;98.30;;;;;;5015435;28;20234;-77
2021/09/22 05:52:01;;;;;;;17.65;11.55;;;8.40;98.20;;;;;;5014791;28;20253;-77
2021/09/22 05:54:28;;;;;;;21.58;12.30;;;8.40;98.20;;;;;;5015105;28;20270;-78
2021/09/22 05:56:57;;;;;;;18.45;12.25;;;8.40;98.10;;;;;;5014942;28;20569;-77
2021/09/22 05:59:23;;;;;;;18.63;11.73;;;8.40;98.00;;;;;;5014582;28;20754;-77
2021/09/22 06:01:50;;;;;;;14.85;11.50;;;8.40;98.30;;;;;;5015212;28;20314;-78
2021/09/22 06:04:17;;;;;;;15.60;12.13;;;8.50;98.30;;;;;;5023725;28;20216;-78
2021/09/22 06:06:44;;;;;;;13.65;12.18;;;8.60;98.30;;;;;;5014743;28;20236;-77
2021/09/22 06:09:11;;;;;;;15.00;12.40;;;8.60;97.40;;;;;;5014075;28;20239;-77
2021/09/22 06:11:38;;;;;;;16.20;11.60;;;8.70;97.40;;;;;;5024856;22;20229;-80
2021/09/22 06:14:07;;;;;;;16.42;12.25;;;8.70;96.90;;;;;;5002150;28;20795;-79
2021/09/22 06:16:34;;;;;;;16.98;13.23;;;8.90;96.70;;;;;;5000096;28;20219;-80
2021/09/22 06:19:02;;;;;;;15.98;12.45;;;8.90;96.00;;;;;;5000340;28;20209;-80
2021/09/22 06:21:29;;;;;;;14.18;11.20;;;9.00;95.80;;;;;;5014114;28;20210;-81
2021/09/22 06:23:56;;;;;;;18.23;12.80;;;9.00;94.90;;;;;;5014562;28;20197;-81
2021/09/22 06:26:25;;;;;;;14.70;11.48;;;9.20;94.90;;;;;;5012872;28;20215;-82
2021/09/22 06:28:53;;;;;;;16.58;13.02;;;9.10;93.40;;;;;;5012835;28;20212;-81
2021/09/22 06:31:23;;;;;;;15.00;12.80;;;9.30;93.40;;;;;;5013555;28;20252;-81
2021/09/22 06:33:50;;;;;;;16.70;12.68;;;9.20;92.60;;;;;;5013953;28;20221;-81
2021/09/22 06:36:17;;;;;;;15.65;12.90;;;9.40;92.50;;;;;;5015960;28;20209;-81
2021/09/22 06:38:44;;;;;;;21.15;13.25;;;9.50;91.80;;;;;;5007750;28;20236;-80
2021/09/22 06:41:11;;;;;;;18.73;14.10;;;9.60;91.60;;;;;;5011904;28;20226;-79
2021/09/22 06:43:38;;;;;;;15.68;12.75;;;9.60;90.40;;;;;;5002635;28;20276;-79
2021/09/22 06:46:05;;;;;;;18.80;13.35;;;9.50;91.00;;;;;;4997723;28;20217;-80
2021/09/22 06:48:33;;;;;;;17.00;11.75;;;9.70;90.80;;;;;;4999037;28;20300;-80
2021/09/22 06:51:00;;;;;;;17.65;14.05;;;9.70;90.50;;;;;;4999434;28;20646;-80
2021/09/22 06:53:28;;;;;;;15.50;13.00;;;9.70;89.60;;;;;;4998911;28;20229;-78
2021/09/22 06:55:54;;;;;;;16.30;13.32;;;9.60;90.00;;;;;;4997760;28;20275;-82
2021/09/22 06:58:22;;;;;;;16.33;12.20;;;9.70;90.80;;;;;;4998186;28;20217;-79
2021/09/22 07:00:48;;;;;;;17.45;12.80;;;9.90;90.50;;;;;;5001824;28;20273;-80
2021/09/22 07:03:15;;;;;;;18.35;13.90;;;10.00;88.10;;;;;;5012624;28;20212;-79
2021/09/22 07:05:44;;;;;;;17.88;12.70;;;10.00;86.70;;;;;;5015005;28;20195;-80
2021/09/22 07:08:12;;;;;;;17.33;13.45;;;10.00;86.40;;;;;;5013992;28;20212;-80
2021/09/22 07:10:39;;;;;;;18.17;14.20;;;10.20;85.80;;;;;;5003900;28;20286;-79
2021/09/22 07:13:06;;;;;;;17.23;13.98;;;10.30;84.40;;;;;;4999408;28;20283;-79
2021/09/22 07:15:34;;;;;;;16.58;13.00;;;10.30;84.30;;;;;;4997128;28;20264;-79
2021/09/22 07:18:01;;;;;;;16.65;12.68;;;10.50;83.20;;;;;;4996054;28;20272;-79
2021/09/22 07:20:28;;;;;;;15.27;12.05;;;10.70;82.30;;;;;;4996068;28;20217;-79
2021/09/22 07:22:57;;;;;;;17.10;13.45;;;10.60;81.00;;;;;;4996165;28;20749;-80
2021/09/22 07:25:24;;;;;;;13.70;12.25;;;10.80;81.30;;;;;;4997066;28;20270;-79
2021/09/22 07:27:51;;;;;;;19.40;13.27;;;10.80;80.10;;;;;;4997263;28;20210;-79
2021/09/22 07:30:18;;;;;;;15.35;12.80;;;10.80;79.20;;;;;;4997093;28;20256;-79
2021/09/22 07:32:47;;;;;;;17.27;13.70;;;10.90;80.30;;;;;;4998616;28;20292;-79
2021/09/22 07:35:14;;;;;;;16.42;13.65;;;10.90;80.70;;;;;;5001289;28;20213;-81
2021/09/22 07:37:42;;;;;;;16.13;12.73;;;10.80;80.30;;;;;;5001522;28;20234;-79
2021/09/22 07:40:11;;;;;;;17.58;13.35;;;10.90;81.90;;;;;;5000804;28;20218;-80
2021/09/22 07:42:38;;;;;;;17.65;14.15;;;11.00;80.60;;;;;;5001334;28;20226;-79
2021/09/22 07:45:07;;;;;;;17.40;14.55;;;11.00;79.50;;;;;;5001998;28;20215;-79
2021/09/22 07:47:34;;;;;;;19.27;14.35;;;10.90;80.50;;;;;;5001893;28;20733;-78
2021/09/22 07:50:01;;;;;;;17.23;13.35;;;11.10;80.20;;;;;;4999383;28;20211;-79
2021/09/22 07:52:28;;;;;;;15.90;12.60;;;11.30;78.90;;;;;;5003135;28;20318;-80
2021/09/22 07:54:55;;;;;;;18.10;12.95;;;11.30;78.20;;;;;;5007308;28;20234;-80
2021/09/22 07:57:24;;;;;;;22.17;13.85;;;11.50;77.60;;;;;;5010756;28;20219;-79
2021/09/22 07:59:51;;;;;;;14.60;12.57;;;11.50;78.30;;;;;;5010666;28;20218;-79
2021/09/22 08:02:18;;;;;;;17.85;13.55;;;11.60;77.00;;;;;;5013102;28;20250;-79
2021/09/22 08:04:45;;;;;;;18.67;12.80;;;11.80;75.60;;;;;;5007380;28;20671;-80
2021/09/22 08:07:12;;;;;;;14.48;12.73;;;11.70;75.80;;;;;;5009589;28;20553;-80
2021/09/22 08:09:39;;;;;;;20.52;14.25;;;11.90;75.80;;;;;;5013221;28;20219;-80
2021/09/22 08:12:07;;;;;;;21.65;15.00;;;12.00;75.40;;;;;;5007039;28;20239;-78
2021/09/22 08:14:46;;;;;;;19.02;13.25;;;12.30;72.70;;;;;;5002726;28;20227;-79
2021/09/22 08:17:14;;;;;;;21.15;14.70;;;12.50;71.50;;;;;;5008270;28;20548;-79
2021/09/22 08:19:41;;;;;;;16.20;12.25;;;12.80;69.20;;;;;;5004162;28;20239;-80
2021/09/22 08:22:09;;;;;;;16.65;14.07;;;13.00;68.10;;;;;;5012039;28;20247;-80
2021/09/22 08:24:37;;;;;;;21.10;13.45;;;12.80;67.70;;;;;;5010350;28;20704;-80
2021/09/22 08:27:05;;;;;;;16.65;13.00;;;13.00;69.10;;;;;;5000368;28;20571;-79
2021/09/22 08:29:32;;;;;;;17.02;14.38;;;13.20;67.30;;;;;;5000197;28;20216;-78
2021/09/22 08:32:01;;;;;;;19.70;14.15;;;13.50;66.30;;;;;;4999024;28;20236;-79
2021/09/22 08:34:28;;;;;;;16.60;13.25;;;13.40;66.30;;;;;;4998850;28;20244;-79
2021/09/22 08:36:55;;;;;;;21.20;13.82;;;13.30;67.30;;;;;;4998405;28;20236;-78
2021/09/22 08:39:22;;;;;;;18.27;13.27;;;13.50;66.10;;;;;;4998742;28;20683;-78
2021/09/22 08:41:49;;;;;;;17.45;14.68;;;13.70;66.50;;;;;;5000237;28;20295;-79
2021/09/22 08:44:20;;;;;;;18.58;14.35;;;13.90;64.60;;;;;;5003997;28;20209;-80
2021/09/22 08:46:48;;;;;;;21.88;15.52;;;13.70;64.80;;;;;;5015441;28;20185;-78
2021/09/22 08:49:16;;;;;;;15.05;12.55;;;13.90;65.10;;;;;;5014171;28;20231;-79
2021/09/22 08:51:44;;;;;;;18.50;13.80;;;14.20;63.80;;;;;;5000810;28;20253;-78
2021/09/22 08:54:12;;;;;;;15.18;11.93;;;14.40;62.70;;;;;;5000643;28;20263;-78
2021/09/22 08:56:40;;;;;;;15.20;12.98;;;14.50;62.80;;;;;;4999370;28;20228;-78
2021/09/22 08:59:08;;;;;;;16.17;13.13;;;14.80;62.00;;;;;;5005139;28;20228;-78
2021/09/22 09:01:35;;;;;;;16.73;12.95;;;14.90;59.10;;;;;;5009037;28;20229;-78
2021/09/22 09:04:16;;;;;;;14.25;12.75;;;14.80;59.90;;;;;;5020108;28;20294;-80
2021/09/22 09:06:43;;;;;;;16.65;13.38;;;15.20;58.00;;;;;;5020256;28;20189;-79
2021/09/22 09:09:11;;;;;;;13.30;11.35;;;15.10;57.50;;;;;;5019765;28;20193;-79
2021/09/22 09:11:39;;;;;;;14.63;12.50;;;15.30;57.20;;;;;;5017975;28;20243;-79
2021/09/22 09:14:09;;;;;;;17.13;12.43;;;15.50;54.40;;;;;;5008294;28;20235;-79
2021/09/22 09:16:39;;;;;;;13.55;11.82;;;15.50;54.40;;;;;;5007903;28;20741;-78
2021/09/22 09:19:13;;;;;;;15.40;12.43;;;15.70;52.80;;;;;;5005777;28;20233;-78
2021/09/22 09:22:02;;;;;;;13.00;11.70;;;15.80;52.80;;;;;;5004416;28;20480;-79
2021/09/22 09:24:35;;;;;;;13.63;11.93;;;15.80;51.50;;;;;;5003395;28;20424;-78
2021/09/22 09:27:03;;;;;;;14.53;12.60;;;15.90;52.10;;;;;;4999862;28;20816;-78
2021/09/22 09:29:31;;;;;;;12.53;11.23;;;16.40;50.40;;;;;;4996978;28;20453;-79
2021/09/22 09:32:19;;;;;;;13.00;10.50;;;16.60;49.40;;;;;;4997237;28;20462;-78
2021/09/22 09:35:04;;;;;;;14.20;10.90;;;16.80;48.30;;;;;;4997664;28;20593;-79
2021/09/22 09:37:38;;;;;;;11.73;8.80;;;17.00;47.60;;;;;;4999941;28;20517;-78
2021/09/22 09:40:24;;;;;;;10.27;9.37;;;16.90;45.40;;;;;;4996887;28;21024;-80
2021/09/22 09:42:53;;;;;;;9.77;8.77;;;16.50;45.60;;;;;;4996799;28;20486;-79
2021/09/22 09:45:21;;;;;;;14.10;9.90;;;16.80;45.00;;;;;;4997418;28;20482;-79
2021/09/22 09:48:03;;;;;;;10.00;9.10;;;16.90;44.10;;;;;;5005589;28;20458;-78
2021/09/22 09:50:37;;;;;;;10.43;8.97;;;16.90;45.10;;;;;;5004643;28;20474;-79
2021/09/22 09:53:06;;;;;;;9.63;8.73;;;17.00;45.40;;;;;;5004010;28;20918;-78
2021/09/22 09:55:33;;;;;;;10.07;9.17;;;17.10;43.90;;;;;;5000100;28;20529;-79
2021/09/22 09:58:01;;;;;;;12.23;8.27;;;17.10;43.50;;;;;;4998288;28;20515;-80
2021/09/22 10:00:47;;;;;;;7.20;6.50;;;17.20;43.30;;;;;;4999458;28;20514;-79
2021/09/22 10:03:16;;;;;;;9.50;7.70;;;17.30;41.90;;;;;;4999487;28;20455;-79
2021/09/22 10:05:44;;;;;;;7.23;6.53;;;17.40;41.70;;;;;;4999483;28;20458;-79
2021/09/22 10:08:13;;;;;;;6.90;6.20;;;17.30;41.50;;;;;;4998737;28;20456;-78
2021/09/22 10:10:43;;;;;;;5.90;5.30;;;17.40;41.10;;;;;;5000675;28;20431;-79
2021/09/22 10:13:11;;;;;;;5.63;5.13;;;17.50;39.70;;;;;;5000529;28;20475;-78
2021/09/22 10:15:40;;;;;;;6.93;5.70;;;17.50;39.50;;;;;;4998763;28;20533;-79
2021/09/22 10:18:08;;;;;;;5.80;5.23;;;17.60;39.40;;;;;;5004306;28;20459;-79
2021/09/22 10:20:37;;;;;;;6.63;4.90;;;17.80;38.10;;;;;;5005224;28;20486;-78
2021/09/22 10:23:04;;;;;;;5.33;4.83;;;18.00;37.00;;;;;;5007956;28;20483;-78
2021/09/22 10:25:33;;;;;;;6.20;5.50;;;18.10;37.00;;;;;;5008457;28;20415;-79
2021/09/22 10:28:00;;;;;;;5.60;5.10;;;17.90;36.90;;;;;;4998752;28;20452;-79
2021/09/22 10:30:38;;;;;;;5.33;4.87;;;17.80;36.80;;;;;;4999079;28;20459;-79
2021/09/22 10:33:06;;;;;;;8.07;4.67;;;17.60;37.80;;;;;;4997539;28;20578;-79
2021/09/22 10:35:40;;;;;;;7.13;4.90;;;17.60;36.90;;;;;;4998075;28;20515;-78
2021/09/22 10:38:40;;;;;;;5.33;4.87;;;17.60;37.60;;;;;;4999094;28;20487;-79
2021/09/22 10:41:10;;;;;;;4.43;4.03;;;17.80;36.70;;;;;;4998338;28;20487;-81
2021/09/22 10:43:39;;;;;;;6.97;4.37;;;18.10;35.40;;;;;;4999471;28;20558;-79
2021/09/22 10:46:15;;;;;;;4.60;4.20;;;18.00;36.50;;;;;;5000066;28;20447;-79
2021/09/22 10:48:57;;;;;;;4.60;3.50;;;18.20;37.10;;;;;;4998064;28;20455;-79
2021/09/22 10:51:29;;;;;;;4.50;4.10;;;18.20;35.10;;;;;;4997362;28;20674;-79
2021/09/22 10:54:09;;;;;;;4.97;3.73;;;18.20;36.10;;;;;;4998945;28;20456;-79
2021/09/22 10:56:55;;;;;;;3.33;3.03;;;18.40;35.60;;;;;;4998343;28;20443;-79
2021/09/22 10:59:35;;;;;;;4.37;3.10;;;18.10;34.00;;;;;;5000533;28;20470;-79
2021/09/22 11:02:02;;;;;;;4.10;3.50;;;18.50;34.60;;;;;;5009689;28;20578;-79
2021/09/22 11:04:57;;;;;;;4.10;3.80;;;18.60;34.30;;;;;;5008363;28;20459;-79
2021/09/22 11:07:24;;;;;;;4.07;3.67;;;18.50;36.10;;;;;;5012054;28;20466;-79
2021/09/22 11:09:51;;;;;;;4.60;4.17;;;18.70;36.30;;;;;;4997589;28;20480;-79
2021/09/22 11:12:20;;;;;;;4.33;3.73;;;18.90;35.40;;;;;;4997425;28;20487;-79
2021/09/22 11:14:52;;;;;;;4.70;4.20;;;18.80;34.90;;;;;;4997008;28;20531;-79
2021/09/22 11:17:23;;;;;;;4.00;3.70;;;18.70;34.60;;;;;;4996427;28;20459;-78
2021/09/22 11:19:53;;;;;;;3.80;3.50;;;18.70;34.80;;;;;;4996495;28;20543;-78
2021/09/22 11:22:23;;;;;;;4.60;3.80;;;18.50;35.30;;;;;;5015552;28;20471;-79
2021/09/22 11:24:53;;;;;;;6.30;3.53;;;18.30;35.00;;;;;;5017507;28;20467;-79
2021/09/22 11:27:23;;;;;;;3.30;3.00;;;18.30;35.70;;;;;;5002579;28;20822;-80
2021/09/22 11:29:52;;;;;;;3.53;3.23;;;18.40;34.50;;;;;;4999527;28;20467;-78
2021/09/22 11:32:31;;;;;;;2.93;2.67;;;18.50;34.40;;;;;;4999434;28;20482;-80
2021/09/22 11:35:01;;;;;;;5.50;3.20;;;18.50;34.20;;;;;;4997043;28;20491;-79
2021/09/22 11:37:31;;;;;;;3.60;3.10;;;18.40;34.50;;;;;;4996415;28;20514;-78
2021/09/22 11:40:11;;;;;;;3.40;3.00;;;18.40;34.60;;;;;;4996802;28;20455;-79
2021/09/22 11:42:41;;;;;;;4.57;3.40;;;18.40;35.00;;;;;;4996361;28;20478;-79
2021/09/22 11:45:09;;;;;;;3.07;2.87;;;18.50;34.70;;;;;;4997793;28;20527;-79
2021/09/22 11:47:45;;;;;;;3.43;3.10;;;18.80;34.00;;;;;;4998180;28;20455;-79
2021/09/22 11:50:12;;;;;;;4.47;3.13;;;19.00;33.80;;;;;;4996757;28;20463;-80
2021/09/22 11:52:47;;;;;;;3.50;3.20;;;18.90;34.20;;;;;;4999251;28;20492;-80
2021/09/22 11:55:19;;;;;;;4.80;3.70;;;18.90;34.60;;;;;;5007421;28;20590;-79
2021/09/22 11:57:48;;;;;;;4.80;3.80;;;18.90;34.40;;;;;;4998992;28;20440;-78
2021/09/22 12:00:16;;;;;;;5.00;4.00;;;19.00;34.60;;;;;;4999849;28;20463;-78
2021/09/22 12:02:43;;;;;;;3.40;3.10;;;19.30;35.00;;;;;;5001744;28;20460;-78
2021/09/22 12:05:14;;;;;;;10.83;4.10;;;19.40;35.10;;;;;;5002402;28;20491;-79
2021/09/22 12:07:43;;;;;;;3.57;3.20;;;19.60;34.30;;;;;;5002159;28;20487;-79
2021/09/22 12:10:11;;;;;;;3.73;3.33;;;19.50;33.60;;;;;;5005808;28;20448;-79
2021/09/22 12:12:39;;;;;;;4.47;3.57;;;19.70;34.20;;;;;;5046346;23;20519;-75
2021/09/22 12:15:10;;;;;;;8.53;3.20;;;19.80;34.00;;;;;;5014270;28;20504;-75
2021/09/22 12:17:38;;;;;;;3.60;3.30;;;19.80;33.60;;;;;;5013911;28;20499;-74
2021/09/22 12:20:09;;;;;;;3.63;3.33;;;19.70;33.60;;;;;;5015213;28;20738;-75
2021/09/22 12:22:38;;;;;;;4.23;3.83;;;19.80;33.40;;;;;;5017786;28;20518;-75
2021/09/22 12:25:07;;;;;;;5.43;3.87;;;19.70;33.80;;;;;;5018520;28;20430;-75
2021/09/22 12:27:35;;;;;;;4.03;3.73;;;19.50;34.30;;;;;;5017203;28;20443;-74
2021/09/22 12:30:07;;;;;;;4.97;3.97;;;19.50;34.30;;;;;;5018860;28;20514;-74
2021/09/22 12:32:49;;;;;;;4.13;3.83;;;19.50;35.40;;;;;;5020833;28;20501;-75
2021/09/22 12:35:16;;;;;;;5.23;4.03;;;20.00;34.30;;;;;;5032964;28;20500;-75
2021/09/22 12:37:51;;;;;;;6.43;3.33;;;20.10;33.60;;;;;;5024576;28;20850;-74
2021/09/22 12:40:18;;;;;;;4.00;3.70;;;20.00;34.20;;;;;;5033697;28;20427;-75
2021/09/22 12:42:46;;;;;;;4.23;3.83;;;19.70;33.50;;;;;;5031906;28;20539;-74
2021/09/22 12:45:15;;;;;;;4.93;3.70;;;19.60;33.80;;;;;;5020697;28;20503;-76
2021/09/22 12:47:54;;;;;;;3.50;3.20;;;19.70;35.40;;;;;;5016272;28;20486;-74
2021/09/22 12:50:23;;;;;;;6.83;3.50;;;19.70;35.10;;;;;;5016361;28;20450;-75